Time;durP1;ratioP1;P1;durP2;ratioP2;P2;SDS_P1;SDS_P2;PMS_P1;PMS_P2;Temp;Humidity;BMP_temperature;BMP_pressure;BME280_temperature;BME280_humidity;BME280_pressure;Samples;Min_cycle;Max_cycle;Signal;HPM_P1;HPM_P2
2023/03/28 00:03:26;;;;;;;5.90;3.30;;;;;;;-1.98;62.53;100134.99;216026;1252;60451;-73
2023/03/28 00:08:19;;;;;;;5.90;3.60;;;;;;;-2.02;62.76;100129.64;217787;1252;65756;-74
2023/03/28 00:13:14;;;;;;;6.00;3.40;;;;;;;-2.02;62.85;100133.86;216478;1252;60508;-74
2023/03/28 00:18:07;;;;;;;7.50;4.20;;;;;;;-2.05;62.76;100130.17;216228;1253;73550;-74
2023/03/28 00:22:59;;;;;;;7.00;3.60;;;;;;;-2.07;62.87;100128.67;216173;1253;60597;-74
2023/03/28 00:27:52;;;;;;;7.70;4.80;;;;;;;-2.11;62.99;100128.09;216373;1252;60472;-74
2023/03/28 00:32:45;;;;;;;5.50;3.70;;;;;;;-2.15;63.03;100124.80;216246;1253;60575;-74
2023/03/28 00:37:40;;;;;;;4.00;3.00;;;;;;;-2.22;63.12;100122.55;216129;1252;60448;-73
2023/03/28 00:42:33;;;;;;;5.10;3.70;;;;;;;-2.24;63.20;100116.14;216156;1252;72506;-73
2023/03/28 00:47:48;;;;;;;6.20;3.90;;;;;;;-2.25;63.31;100110.98;216231;1252;60437;-74
2023/03/28 00:52:48;;;;;;;8.40;3.60;;;;;;;-2.28;63.49;100112.84;216234;1253;60448;-74
2023/03/28 00:57:43;;;;;;;6.90;4.30;;;;;;;-2.33;63.68;100104.23;217868;1247;67275;-74
2023/03/28 01:02:44;;;;;;;6.10;3.90;;;;;;;-2.37;63.90;100104.38;216013;1253;62087;-73
2023/03/28 01:08:28;;;;;;;;;;;;;;;;;;;;;
2023/03/28 01:13:47;;;;;;;6.20;4.00;;;;;;;-2.46;64.26;100097.36;215944;1254;74018;-73
2023/03/28 01:19:09;;;;;;;8.50;4.30;;;;;;;-2.55;64.27;100106.48;215946;1253;60495;-73
2023/03/28 01:25:02;;;;;;;5.30;3.50;;;;;;;-2.66;64.58;100106.68;215927;1253;67270;-74
2023/03/28 01:30:23;;;;;;;7.00;4.90;;;;;;;-2.79;64.69;100110.51;214802;1262;60464;-73
2023/03/28 01:36:01;;;;;;;6.20;4.20;;;;;;;-2.86;64.71;100097.55;215414;1254;74018;-73
2023/03/28 01:40:59;;;;;;;9.70;5.10;;;;;;;-2.95;64.90;100093.59;216013;1254;73247;-73
2023/03/28 01:46:30;;;;;;;10.30;5.80;;;;;;;-3.02;65.15;100090.30;215913;1253;62957;-73
2023/03/28 01:51:44;;;;;;;8.90;5.70;;;;;;;-3.06;65.38;100089.37;214741;1264;67137;-74
2023/03/28 01:57:06;;;;;;;9.80;5.90;;;;;;;-3.11;65.62;100079.63;214816;1260;60577;-74
2023/03/28 02:02:09;;;;;;;9.80;5.10;;;;;;;-3.12;65.42;100078.02;214843;1264;73901;-74
2023/03/28 02:07:20;;;;;;;9.30;6.00;;;;;;;-3.19;65.73;100072.47;214790;1260;70549;-73
2023/03/28 02:13:16;;;;;;;10.40;5.40;;;;;;;-3.25;65.87;100065.48;214816;1260;60355;-73
2023/03/28 02:18:28;;;;;;;10.50;5.50;;;;;;;-3.35;65.63;100075.05;214974;1261;65722;-73
2023/03/28 02:23:52;;;;;;;9.30;5.90;;;;;;;-3.44;65.74;100079.21;214907;1264;61030;-74
2023/03/28 02:29:20;;;;;;;10.40;4.90;;;;;;;-3.52;66.15;100076.56;215993;1253;75320;-73
2023/03/28 02:34:51;;;;;;;;;;;;;;;-3.57;66.21;100070.80;215916;1253;160448;-73
2023/03/28 02:40:08;;;;;;;7.20;5.00;;;;;;;-3.64;66.44;100065.44;216093;1253;60559;-74
2023/03/28 02:45:41;;;;;;;12.40;5.70;;;;;;;-3.70;66.68;100058.30;216095;1253;67036;-74
2023/03/28 02:51:02;;;;;;;9.60;5.30;;;;;;;-3.74;66.91;100068.85;216128;1253;60434;-73
2023/03/28 02:56:05;;;;;;;7.90;5.40;;;;;;;-3.78;66.96;100068.65;214771;1260;72914;-73
2023/03/28 03:01:35;;;;;;;8.80;4.90;;;;;;;-3.83;67.21;100068.16;214885;1260;71168;-73
2023/03/28 03:06:33;;;;;;;10.20;6.60;;;;;;;-3.86;67.52;100061.89;214840;1260;61505;-74
2023/03/28 03:11:29;;;;;;;10.50;7.00;;;;;;;-3.92;67.50;100054.55;214962;1260;65650;-73
2023/03/28 03:16:27;;;;;;;9.90;6.40;;;;;;;-3.99;67.36;100058.19;214850;1263;60512;-73
2023/03/28 03:21:24;;;;;;;11.40;6.50;;;;;;;-4.10;67.60;100058.66;214763;1261;74658;-73
2023/03/28 03:26:21;;;;;;;10.80;6.30;;;;;;;-4.18;67.82;100063.20;214674;1260;73334;-73
2023/03/28 03:31:31;;;;;;;10.20;5.60;;;;;;;-4.21;68.00;100052.88;215207;1257;60562;-73
2023/03/28 03:36:48;;;;;;;10.70;6.50;;;;;;;-4.20;68.55;100043.42;215930;1253;66130;-73
2023/03/28 03:41:51;;;;;;;14.60;7.60;;;;;;;-4.23;68.22;100042.24;216110;1253;60594;-73
2023/03/28 03:47:01;;;;;;;13.00;6.90;;;;;;;-4.25;68.34;100039.07;215940;1253;74819;-73
2023/03/28 03:52:10;;;;;;;11.10;6.30;;;;;;;-4.24;68.18;100039.95;215937;1254;71688;-73
2023/03/28 03:57:08;;;;;;;15.80;8.20;;;;;;;-4.24;68.30;100036.96;216046;1254;61757;-73
2023/03/28 04:02:04;;;;;;;8.40;5.60;;;;;;;-4.25;68.52;100029.23;215732;1253;66685;-73
2023/03/28 04:07:05;;;;;;;11.80;7.50;;;;;;;-4.32;68.47;100042.80;215921;1257;60447;-73
2023/03/28 04:11:59;;;;;;;12.30;7.40;;;;;;;-4.40;68.92;100042.64;215954;1253;72261;-73
2023/03/28 04:16:52;;;;;;;12.60;6.70;;;;;;;-4.38;68.92;100047.00;215895;1253;72573;-73
2023/03/28 04:21:48;;;;;;;13.30;7.70;;;;;;;-4.34;68.88;100044.23;215988;1256;60457;-74
2023/03/28 04:26:44;;;;;;;11.50;7.70;;;;;;;-4.21;69.35;100038.65;215800;1254;67012;-73
2023/03/28 04:31:38;;;;;;;10.10;7.00;;;;;;;-4.09;69.13;100031.91;216191;1256;60562;-73
2023/03/28 04:36:36;;;;;;;14.50;8.60;;;;;;;-4.01;69.43;100029.42;216071;1253;72723;-73
2023/03/28 04:41:32;;;;;;;11.60;6.60;;;;;;;-3.98;69.19;100034.02;215946;1253;71338;-73
2023/03/28 04:46:43;;;;;;;11.80;7.50;;;;;;;-4.00;69.12;100040.48;215917;1254;60620;-73
2023/03/28 04:51:37;;;;;;;13.40;8.80;;;;;;;-4.00;69.52;100037.13;215968;1253;67570;-73
2023/03/28 04:56:31;;;;;;;12.80;9.40;;;;;;;-3.91;69.55;100037.35;215830;1253;60431;-73
2023/03/28 05:01:26;;;;;;;17.40;9.90;;;;;;;-3.82;69.69;100036.23;215897;1257;73058;-73
2023/03/28 05:06:52;;;;;;;16.00;11.40;;;;;;;-3.58;69.69;100038.05;215701;1253;71275;-74
2023/03/28 05:11:46;;;;;;;15.30;10.60;;;;;;;-3.39;69.96;100039.70;215841;1253;60457;-73
2023/03/28 05:16:41;;;;;;;18.90;11.00;;;;;;;-3.21;69.73;100035.05;215908;1254;65806;-73
2023/03/28 05:22:09;;;;;;;15.40;10.40;;;;;;;-3.04;69.79;100038.79;215161;1254;60545;-73
2023/03/28 05:27:05;;;;;;;15.70;9.90;;;;;;;-2.82;69.58;100030.93;215876;1253;76370;-72
2023/03/28 05:31:58;;;;;;;15.70;10.00;;;;;;;-2.59;69.55;100023.61;215946;1255;60563;-74
2023/03/28 05:36:55;;;;;;;12.20;9.30;;;;;;;-2.33;69.46;100019.38;216044;1253;60542;-73
2023/03/28 05:41:59;;;;;;;14.30;8.30;;;;;;;-2.05;69.39;100024.86;215938;1253;65861;-73
2023/03/28 05:46:52;;;;;;;20.40;9.10;;;;;;;-1.73;69.13;100022.84;216394;1253;60549;-75
2023/03/28 05:51:45;;;;;;;13.00;8.70;;;;;;;-1.33;68.84;100019.23;216031;1253;60797;-74
2023/03/28 05:56:38;;;;;;;10.40;7.20;;;;;;;-1.07;68.48;100012.63;215874;1253;71130;-74
2023/03/28 06:01:33;;;;;;;12.20;8.80;;;;;;;-0.91;67.96;100014.29;216004;1253;60455;-74
2023/03/28 06:06:27;;;;;;;13.80;9.40;;;;;;;-0.69;67.74;100018.51;215890;1253;67643;-74
2023/03/28 06:11:20;;;;;;;15.20;7.20;;;;;;;-0.41;67.51;100016.83;215955;1253;60553;-74
2023/03/28 06:16:33;;;;;;;13.60;8.10;;;;;;;-0.19;67.14;100012.95;216161;1254;73535;-74
2023/03/28 06:21:27;;;;;;;16.60;9.20;;;;;;;-0.10;67.01;100017.30;215684;1253;70655;-74
2023/03/28 06:26:20;;;;;;;14.40;8.50;;;;;;;-0.07;66.67;100029.56;216154;1253;60412;-73
2023/03/28 06:31:14;;;;;;;16.40;8.50;;;;;;;0.05;66.27;100028.09;216337;1253;60422;-74
2023/03/28 06:36:08;;;;;;;14.50;9.70;;;;;;;0.50;66.15;100035.28;216572;1253;60549;-74
2023/03/28 06:41:01;;;;;;;16.40;8.60;;;;;;;0.82;65.75;100043.07;215970;1255;72788;-74
2023/03/28 06:45:55;;;;;;;14.90;8.90;;;;;;;0.89;66.09;100045.10;215719;1254;60540;-74
2023/03/28 06:50:49;;;;;;;19.50;10.60;;;;;;;1.12;65.92;100045.92;215910;1254;60470;-74
2023/03/28 06:55:45;;;;;;;16.10;9.60;;;;;;;1.38;66.04;100041.44;215941;1254;65396;-74
2023/03/28 07:00:38;;;;;;;15.70;11.50;;;;;;;1.29;66.01;100048.73;215926;1253;61338;-74
2023/03/28 07:06:08;;;;;;;17.30;10.20;;;;;;;1.20;66.46;100052.11;216037;1253;72604;-74
2023/03/28 07:11:01;;;;;;;19.50;13.60;;;;;;;1.14;66.79;100061.57;215969;1254;71179;-74
2023/03/28 07:16:01;;;;;;;22.30;13.60;;;;;;;1.01;66.86;100069.52;216043;1256;60576;-73
2023/03/28 07:20:55;;;;;;;16.70;12.60;;;;;;;0.98;67.14;100079.60;216049;1253;65673;-74
2023/03/28 07:25:56;;;;;;;20.50;13.50;;;;;;;1.10;67.22;100080.52;215823;1253;60980;-74
2023/03/28 07:30:49;;;;;;;14.50;11.30;;;;;;;1.19;67.84;100084.13;216019;1256;73959;-74
2023/03/28 07:35:42;;;;;;;20.70;13.70;;;;;;;1.09;67.94;100086.28;215877;1254;60642;-74
2023/03/28 07:40:37;;;;;;;18.00;12.50;;;;;;;0.97;68.13;100087.61;216125;1253;60562;-73
2023/03/28 07:45:31;;;;;;;13.90;9.90;;;;;;;0.80;68.65;100095.20;215833;1253;60468;-73
2023/03/28 07:50:24;;;;;;;18.80;12.60;;;;;;;0.70;68.95;100094.25;215829;1253;60466;-72
2023/03/28 07:55:17;;;;;;;16.50;12.10;;;;;;;0.64;69.21;100099.73;216101;1253;74229;-72
2023/03/28 08:00:16;;;;;;;16.30;11.50;;;;;;;0.59;69.41;100100.54;216218;1253;72018;-74
2023/03/28 08:05:12;;;;;;;15.80;11.80;;;;;;;0.58;69.63;100099.98;215923;1256;60536;-72
2023/03/28 08:10:06;;;;;;;14.80;11.40;;;;;;;0.59;69.57;100106.67;216001;1253;60530;-74
2023/03/28 08:14:59;;;;;;;19.60;13.40;;;;;;;0.58;69.75;100110.55;216001;1253;60566;-73
2023/03/28 08:19:53;;;;;;;14.80;12.00;;;;;;;0.59;69.81;100116.21;216046;1253;72606;-73
2023/03/28 08:24:52;;;;;;;17.00;12.10;;;;;;;0.68;69.88;100121.58;216491;1253;72498;-74
2023/03/28 08:29:47;;;;;;;10.60;9.20;;;;;;;0.86;70.04;100129.06;217501;1252;60475;-74
2023/03/28 08:34:41;;;;;;;15.90;11.70;;;;;;;1.01;69.64;100130.94;215880;1253;66541;-73
2023/03/28 08:39:41;;;;;;;14.80;11.30;;;;;;;1.27;69.72;100137.25;216521;1253;60939;-72
2023/03/28 08:45:02;;;;;;;14.00;11.10;;;;;;;1.69;69.77;100133.98;215956;1255;72567;-73
2023/03/28 08:50:03;;;;;;;14.00;10.70;;;;;;;2.05;68.55;100134.30;216181;1253;72862;-74
2023/03/28 08:55:09;;;;;;;18.20;13.20;;;;;;;2.39;67.83;100140.67;216051;1253;61265;-73
2023/03/28 09:00:21;;;;;;;22.20;13.60;;;;;;;2.87;68.22;100146.48;215978;1253;65787;-72
2023/03/28 09:05:17;;;;;;;13.00;9.90;;;;;;;3.58;66.79;100142.26;215776;1253;60339;-73
2023/03/28 09:10:23;;;;;;;13.60;10.00;;;;;;;4.61;65.37;100140.40;215751;1257;73158;-73
2023/03/28 09:15:42;;;;;;;8.20;6.80;;;;;;;5.20;64.12;100137.95;215845;1258;72406;-73
2023/03/28 09:20:59;;;;;;;7.90;7.10;;;;;;;5.72;63.73;100135.77;215928;1255;60529;-72
2023/03/28 09:26:07;;;;;;;9.30;6.30;;;;;;;5.82;62.86;100139.15;215731;1257;67949;-74
2023/03/28 09:31:02;;;;;;;12.30;7.80;;;;;;;5.48;62.84;100141.66;215797;1256;61370;-73
2023/03/28 09:35:57;;;;;;;8.30;5.90;;;;;;;5.86;61.61;100141.92;216046;1253;73060;-73
2023/03/28 09:40:55;;;;;;;4.40;3.90;;;;;;;7.28;59.37;100132.95;215821;1256;72522;-73
2023/03/28 09:46:14;;;;;;;5.30;4.00;;;;;;;7.89;58.42;100127.48;215429;1254;60531;-73
2023/03/28 09:51:23;;;;;;;3.50;3.00;;;;;;;6.86;57.92;100137.27;215773;1255;66206;-73
2023/03/28 09:56:33;;;;;;;3.50;3.00;;;;;;;5.70;58.15;100150.86;215841;1256;60409;-72
2023/03/28 10:01:48;;;;;;;5.30;4.20;;;;;;;4.44;60.62;100183.61;215818;1253;75752;-73
2023/03/28 10:06:48;;;;;;;5.90;5.30;;;;;;;3.33;63.05;100205.77;215968;1253;72556;-73
2023/03/28 10:11:53;;;;;;;7.20;6.00;;;;;;;2.65;64.63;100213.07;216076;1256;60504;-74
2023/03/28 10:16:48;;;;;;;11.40;9.00;;;;;;;2.28;65.72;100226.25;216038;1256;67835;-73
2023/03/28 10:21:51;;;;;;;11.80;8.40;;;;;;;2.02;66.27;100237.95;216113;1256;60450;-74
2023/03/28 10:26:47;;;;;;;9.30;8.40;;;;;;;2.18;66.86;100244.10;216166;1253;72516;-73
2023/03/28 10:31:47;;;;;;;11.60;9.70;;;;;;;2.51;66.97;100249.93;216154;1253;71331;-73
2023/03/28 10:37:26;;;;;;;12.30;10.40;;;;;;;2.63;66.10;100265.34;216050;1253;60460;-73
2023/03/28 10:42:45;;;;;;;12.90;11.30;;;;;;;2.41;66.03;100271.77;215967;1253;66240;-73
2023/03/28 10:48:18;;;;;;;15.00;10.70;;;;;;;2.04;66.82;100289.31;215765;1253;60507;-73
2023/03/28 10:53:18;;;;;;;11.50;9.80;;;;;;;1.85;67.16;100303.20;216033;1253;74489;-74
2023/03/28 10:58:35;;;;;;;12.50;9.80;;;;;;;1.87;66.77;100311.98;216035;1253;71439;-73
2023/03/28 11:04:17;;;;;;;9.30;7.40;;;;;;;2.33;65.67;100322.58;215846;1253;60466;-73
2023/03/28 11:09:22;;;;;;;9.20;6.90;;;;;;;2.27;65.19;100335.47;214615;1262;65017;-73
2023/03/28 11:15:00;;;;;;;7.90;6.00;;;;;;;2.14;65.16;100341.41;214768;1265;60608;-73
2023/03/28 11:20:27;;;;;;;6.00;4.80;;;;;;;2.22;64.68;100349.44;214729;1262;74997;-73
2023/03/28 11:25:47;;;;;;;6.00;4.00;;;;;;;2.58;64.29;100352.38;214744;1262;74615;-73
2023/03/28 11:31:19;;;;;;;7.60;5.30;;;;;;;2.48;63.85;100364.27;214659;1262;60589;-73
2023/03/28 11:36:52;;;;;;;3.90;3.00;;;;;;;2.32;63.65;100366.29;214764;1262;65014;-72
2023/03/28 11:41:49;;;;;;;4.60;3.60;;;;;;;2.17;63.50;100374.20;214686;1262;60479;-73
2023/03/28 11:47:08;;;;;;;3.40;2.60;;;;;;;2.13;62.80;100379.65;215821;1258;75502;-72
2023/03/28 11:52:25;;;;;;;3.40;2.90;;;;;;;2.10;62.55;100388.60;215824;1256;72585;-72
2023/03/28 11:57:33;;;;;;;3.60;3.20;;;;;;;2.18;62.67;100392.90;215861;1253;60319;-73
2023/03/28 12:02:30;;;;;;;4.60;3.20;;;;;;;2.14;62.17;100400.72;215910;1253;64538;-73
2023/03/28 12:07:35;;;;;;;5.40;3.80;;;;;;;2.11;61.96;100403.52;216027;1253;60586;-73
2023/03/28 12:12:58;;;;;;;2.90;2.50;;;;;;;2.24;62.22;100406.16;215852;1254;74791;-73
2023/03/28 12:17:57;;;;;;;3.30;2.40;;;;;;;2.23;62.22;100410.89;215898;1254;74913;-72
2023/03/28 12:22:58;;;;;;;2.50;2.20;;;;;;;2.06;61.18;100413.34;216058;1254;60532;-73
2023/03/28 12:28:34;;;;;;;4.30;2.80;;;;;;;1.84;60.79;100422.79;215960;1256;65991;-74
2023/03/28 12:33:47;;;;;;;3.30;2.90;;;;;;;1.77;61.36;100432.52;215986;1256;60457;-73
2023/03/28 12:38:58;;;;;;;2.90;2.20;;;;;;;2.13;61.13;100432.13;215970;1256;73997;-72
2023/03/28 12:44:04;;;;;;;3.40;3.10;;;;;;;2.56;60.45;100434.41;216027;1256;72452;-73
2023/03/28 12:49:13;;;;;;;;;;;;;;;2.87;60.22;100439.22;215911;1254;60441;-72
2023/03/28 12:54:14;;;;;;;5.00;2.60;;;;;;;2.86;59.57;100441.08;215962;1253;66453;-73
2023/03/28 12:59:38;;;;;;;3.10;2.00;;;;;;;2.88;58.90;100447.46;215986;1254;60463;-74
2023/03/28 13:04:48;;;;;;;2.20;1.70;;;;;;;2.64;58.40;100453.61;215944;1254;74627;-74
2023/03/28 13:09:59;;;;;;;1.60;1.50;;;;;;;2.50;57.38;100456.93;216003;1254;72292;-72
2023/03/28 13:14:59;;;;;;;;;;;;;;;2.52;57.10;100459.41;216064;1256;60960;-73
2023/03/28 13:20:28;;;;;;;3.10;1.40;;;;;;;2.85;56.79;100457.79;216161;1256;66531;-72
2023/03/28 13:25:38;;;;;;;2.20;1.60;;;;;;;3.21;55.54;100455.42;215997;1253;60468;-73
2023/03/28 13:30:32;;;;;;;3.40;2.00;;;;;;;3.31;55.37;100459.42;215997;1254;73637;-73
2023/03/28 13:36:10;;;;;;;6.70;3.70;;;;;;;3.23;55.17;100463.53;215946;1254;72288;-74
2023/03/28 13:41:09;;;;;;;;;;;;;;;3.13;54.11;100471.67;215971;1258;60436;-74
2023/03/28 13:46:20;;;;;;;2.10;1.30;;;;;;;2.82;54.21;100480.08;216244;1256;66571;-75
2023/03/28 13:51:19;;;;;;;3.90;1.70;;;;;;;2.71;54.66;100483.03;215983;1255;60503;-74
2023/03/28 13:56:23;;;;;;;2.20;1.40;;;;;;;2.90;53.96;100487.48;215951;1255;74389;-75
2023/03/28 14:01:23;;;;;;;5.10;3.10;;;;;;;3.22;53.15;100488.86;215870;1256;73395;-74
2023/03/28 14:06:22;;;;;;;2.60;2.10;;;;;;;3.80;52.65;100489.52;215801;1254;61744;-73
2023/03/28 14:11:19;;;;;;;1.80;1.60;;;;;;;4.53;52.32;100487.38;215850;1257;67851;-72
2023/03/28 14:16:13;;;;;;;2.80;1.90;;;;;;;5.39;51.89;100494.44;215956;1257;60457;-72
2023/03/28 14:21:06;;;;;;;6.10;3.00;;;;;;;5.72;50.71;100494.69;215828;1258;74598;-72
2023/03/28 14:26:02;;;;;;;3.40;2.10;;;;;;;5.39;49.64;100523.30;215860;1259;72013;-73
2023/03/28 14:30:55;;;;;;;2.40;1.20;;;;;;;4.51;49.76;100532.98;215422;1260;60563;-73
2023/03/28 14:36:00;;;;;;;3.60;2.60;;;;;;;3.83;50.32;100539.04;215553;1257;146540;-73
2023/03/28 14:40:54;;;;;;;2.40;1.80;;;;;;;3.33;50.27;100541.58;215883;1257;60462;-73
2023/03/28 14:45:53;;;;;;;5.00;1.80;;;;;;;2.99;49.95;100546.73;215959;1254;72662;-72
2023/03/28 14:50:48;;;;;;;5.10;2.10;;;;;;;2.95;51.07;100552.25;215796;1254;72356;-72
2023/03/28 14:55:48;;;;;;;3.50;1.60;;;;;;;3.06;51.44;100552.38;216033;1259;60420;-72
2023/03/28 15:00:43;;;;;;;2.70;2.30;;;;;;;2.93;50.93;100556.59;216221;1257;67601;-72
2023/03/28 15:05:37;;;;;;;3.40;1.80;;;;;;;2.86;51.89;100559.35;215978;1257;60434;-72
2023/03/28 15:10:31;;;;;;;11.90;4.70;;;;;;;2.86;51.43;100558.18;216166;1254;73444;-72
2023/03/28 15:15:28;;;;;;;16.80;6.80;;;;;;;2.93;51.77;100561.41;216032;1254;73747;-73
2023/03/28 15:20:26;;;;;;;9.00;4.60;;;;;;;2.69;51.03;100574.31;216057;1257;60472;-73
2023/03/28 15:25:20;;;;;;;4.90;3.00;;;;;;;2.61;51.01;100577.36;216022;1255;65872;-73
2023/03/28 15:30:18;;;;;;;11.00;4.50;;;;;;;3.15;50.69;100585.31;216122;1254;60478;-73
2023/03/28 15:35:42;;;;;;;2.90;1.90;;;;;;;3.50;50.24;100590.59;216009;1254;72594;-73
2023/03/28 15:40:41;;;;;;;6.90;2.90;;;;;;;3.69;50.05;100592.80;215995;1254;72139;-73
2023/03/28 15:45:44;;;;;;;3.00;1.90;;;;;;;3.88;49.51;100599.61;216031;1257;60553;-73
2023/03/28 15:50:38;;;;;;;3.80;2.10;;;;;;;3.61;48.79;100610.98;215978;1256;66835;-72
2023/03/28 15:55:31;;;;;;;2.10;1.90;;;;;;;3.17;49.01;100620.84;216120;1254;60690;-72
2023/03/28 16:00:47;;;;;;;2.40;1.30;;;;;;;2.53;49.52;100635.16;215866;1256;72512;-72
2023/03/28 16:05:40;;;;;;;2.20;1.40;;;;;;;1.95;49.62;100651.98;215820;1257;72741;-72
2023/03/28 16:10:33;;;;;;;2.20;1.70;;;;;;;1.52;49.72;100651.33;215909;1258;60433;-72
2023/03/28 16:15:52;;;;;;;3.30;1.30;;;;;;;1.21;50.40;100661.48;215878;1257;67890;-73
2023/03/28 16:20:54;;;;;;;3.30;1.60;;;;;;;1.01;50.52;100662.50;215856;1257;60453;-73
2023/03/28 16:25:47;;;;;;;2.50;1.60;;;;;;;0.86;50.81;100667.30;215878;1256;60472;-73
2023/03/28 16:30:41;;;;;;;5.40;4.80;;;;;;;0.75;51.47;100677.80;215626;1260;60470;-72
2023/03/28 16:35:34;;;;;;;6.20;3.50;;;;;;;0.72;51.94;100689.04;215669;1254;60480;-72
2023/03/28 16:40:28;;;;;;;9.70;4.50;;;;;;;0.68;52.40;100688.98;215827;1254;67185;-72
2023/03/28 16:45:21;;;;;;;4.50;2.80;;;;;;;0.66;53.10;100701.99;215843;1258;60530;-73
2023/03/28 16:50:16;;;;;;;6.00;2.70;;;;;;;0.53;53.90;100708.11;215877;1254;74165;-73
2023/03/28 16:55:11;;;;;;;3.70;3.10;;;;;;;0.33;54.80;100721.13;215825;1254;72649;-72
2023/03/28 17:00:08;;;;;;;3.20;2.50;;;;;;;0.12;55.32;100726.70;215845;1256;60430;-73
2023/03/28 17:05:01;;;;;;;2.90;2.60;;;;;;;-0.07;56.18;100733.59;215851;1254;66892;-72
2023/03/28 17:09:54;;;;;;;4.30;3.00;;;;;;;-0.22;56.78;100742.05;215888;1254;60452;-72
2023/03/28 17:14:47;;;;;;;5.50;3.00;;;;;;;-0.31;57.19;100751.41;215877;1257;60568;-73
2023/03/28 17:19:40;;;;;;;6.00;3.20;;;;;;;-0.34;57.47;100756.98;215456;1255;72476;-73
2023/03/28 17:24:33;;;;;;;3.30;2.00;;;;;;;-0.38;57.69;100760.19;215899;1253;60435;-72
2023/03/28 17:29:26;;;;;;;3.60;2.90;;;;;;;-0.42;57.85;100776.64;215893;1254;62471;-72
2023/03/28 17:34:19;;;;;;;3.50;2.40;;;;;;;-0.46;58.00;100793.42;215760;1259;60503;-71
2023/03/28 17:39:12;;;;;;;6.90;3.30;;;;;;;-0.53;58.41;100795.87;215935;1254;60531;-72
2023/03/28 17:44:07;;;;;;;5.60;3.50;;;;;;;-0.52;58.72;100805.27;215933;1254;71647;-71
2023/03/28 17:49:00;;;;;;;4.80;3.20;;;;;;;-0.43;59.02;100808.75;215906;1254;60601;-71
2023/03/28 17:53:54;;;;;;;2.90;2.40;;;;;;;-0.37;59.09;100814.02;215870;1254;60444;-72
2023/03/28 17:58:47;;;;;;;7.40;3.00;;;;;;;-0.36;59.18;100818.17;216110;1254;60556;-71
2023/03/28 18:03:40;;;;;;;6.00;3.10;;;;;;;-0.36;58.98;100823.64;216079;1253;72644;-71
2023/03/28 18:08:54;;;;;;;6.30;3.40;;;;;;;-0.37;59.31;100830.38;216197;1254;71344;-71
2023/03/28 18:13:47;;;;;;;5.40;2.70;;;;;;;-0.41;59.37;100835.43;216950;1254;60303;-71
2023/03/28 18:18:40;;;;;;;6.00;3.60;;;;;;;-0.45;59.39;100845.56;216203;1254;60931;-71
2023/03/28 18:23:35;;;;;;;4.50;2.40;;;;;;;-0.51;59.41;100851.01;215921;1253;59249;-72
2023/03/28 18:28:28;;;;;;;5.40;3.00;;;;;;;-0.60;59.60;100854.34;215917;1253;73701;-71
2023/03/28 18:33:22;;;;;;;5.00;2.60;;;;;;;-0.72;59.58;100849.27;216051;1253;73745;-72
2023/03/28 18:38:16;;;;;;;4.60;2.40;;;;;;;-0.83;59.64;100849.66;216075;1254;61153;-71
2023/03/28 18:43:09;;;;;;;3.50;3.00;;;;;;;-0.93;59.66;100858.19;216542;1253;67805;-72
2023/03/28 18:48:02;;;;;;;7.00;2.90;;;;;;;-1.00;59.74;100856.35;216036;1254;60374;-72
2023/03/28 18:52:56;;;;;;;4.00;1.90;;;;;;;-1.04;59.96;100856.73;215952;1255;72545;-71
2023/03/28 18:57:49;;;;;;;4.90;3.00;;;;;;;-1.09;59.94;100860.33;215848;1254;72269;-72
2023/03/28 19:02:43;;;;;;;5.00;2.50;;;;;;;-1.14;59.99;100864.95;216180;1253;59264;-72
2023/03/28 19:07:37;;;;;;;3.30;2.40;;;;;;;-1.18;60.31;100869.79;215748;1254;66715;-71
2023/03/28 19:12:30;;;;;;;5.20;3.10;;;;;;;-1.22;60.50;100867.48;215787;1254;60495;-71
2023/03/28 19:17:23;;;;;;;3.90;3.00;;;;;;;-1.26;60.67;100868.94;215963;1253;73001;-71
2023/03/28 19:22:16;;;;;;;4.40;3.00;;;;;;;-1.29;60.71;100874.36;215917;1254;60565;-71
2023/03/28 19:27:09;;;;;;;6.70;4.60;;;;;;;-1.30;61.02;100870.02;215968;1254;60473;-71
2023/03/28 19:32:02;;;;;;;7.50;4.00;;;;;;;-1.30;61.09;100865.23;215912;1257;60466;-72
2023/03/28 19:36:54;;;;;;;12.20;6.80;;;;;;;-1.31;61.29;100868.05;215903;1254;60555;-72
2023/03/28 19:41:47;;;;;;;3.70;3.10;;;;;;;-1.30;61.21;100868.83;216088;1253;60511;-71
2023/03/28 19:46:43;;;;;;;4.70;3.00;;;;;;;-1.34;61.33;100875.03;217415;1253;61010;-72
2023/03/28 19:51:37;;;;;;;4.20;2.20;;;;;;;-1.39;61.49;100877.40;216821;1253;61212;-72
2023/03/28 19:56:30;;;;;;;4.80;3.00;;;;;;;-1.42;61.53;100877.71;216503;1254;67091;-72
2023/03/28 20:01:23;;;;;;;6.40;4.60;;;;;;;-1.43;61.79;100882.38;216366;1253;59304;-72
2023/03/28 20:06:16;;;;;;;4.40;2.60;;;;;;;-1.44;61.82;100882.99;215858;1254;74047;-72
2023/03/28 20:11:11;;;;;;;4.50;3.10;;;;;;;-1.46;61.81;100883.58;215953;1253;71404;-73
2023/03/28 20:16:06;;;;;;;4.40;3.40;;;;;;;-1.48;61.72;100884.10;216182;1253;60562;-73
2023/03/28 20:21:01;;;;;;;5.90;3.70;;;;;;;-1.50;61.73;100878.86;215958;1254;67115;-73
2023/03/28 20:25:57;;;;;;;5.90;3.00;;;;;;;-1.53;61.68;100882.22;215784;1253;60527;-72
2023/03/28 20:30:52;;;;;;;7.70;3.50;;;;;;;-1.55;61.78;100886.90;216201;1257;74562;-72
2023/03/28 20:35:52;;;;;;;4.70;2.90;;;;;;;-1.51;61.78;100884.71;215590;1254;73370;-72
2023/03/28 20:40:46;;;;;;;4.00;2.80;;;;;;;-1.46;61.83;100886.10;215471;1253;60488;-73
2023/03/28 20:45:44;;;;;;;5.20;3.10;;;;;;;-1.42;61.94;100888.08;216207;1253;66849;-73
2023/03/28 20:50:40;;;;;;;6.40;3.20;;;;;;;-1.38;61.91;100891.04;216490;1253;60581;-73
2023/03/28 20:55:34;;;;;;;8.00;4.10;;;;;;;-1.32;61.74;100893.50;215735;1253;71459;-72
2023/03/28 21:00:32;;;;;;;7.60;4.50;;;;;;;-1.26;61.82;100893.93;218378;1253;72947;-73
2023/03/28 21:05:26;;;;;;;4.60;3.30;;;;;;;-1.19;61.73;100889.61;216981;1253;61146;-73
2023/03/28 21:10:19;;;;;;;8.70;4.10;;;;;;;-1.15;61.41;100891.77;217910;1253;65912;-73
2023/03/28 21:15:12;;;;;;;11.30;4.00;;;;;;;-1.11;61.22;100892.36;218417;1253;58266;-73
2023/03/28 21:20:08;;;;;;;5.70;3.40;;;;;;;-1.08;61.18;100895.78;218506;1253;59061;-73
2023/03/28 21:25:02;;;;;;;6.60;3.50;;;;;;;-1.06;60.92;100903.05;217629;1253;71377;-73
2023/03/28 21:29:55;;;;;;;5.50;3.00;;;;;;;-1.04;60.75;100901.50;216003;1254;60536;-73
2023/03/28 21:34:50;;;;;;;4.80;3.00;;;;;;;-1.01;60.69;100908.69;216144;1253;66172;-72
2023/03/28 21:39:42;;;;;;;5.90;3.10;;;;;;;-1.00;60.39;100916.73;215987;1253;60476;-72
2023/03/28 21:44:35;;;;;;;4.60;2.60;;;;;;;-1.01;60.37;100916.98;216087;1253;60609;-73
2023/03/28 21:49:29;;;;;;;4.40;2.70;;;;;;;-1.04;60.35;100919.51;215802;1253;60459;-73
2023/03/28 21:54:22;;;;;;;6.00;4.90;;;;;;;-1.08;60.04;100924.85;216558;1253;60460;-74
2023/03/28 21:59:15;;;;;;;5.60;3.40;;;;;;;-1.14;59.92;100930.26;216138;1253;61055;-73
2023/03/28 22:04:08;;;;;;;3.50;2.30;;;;;;;-1.23;59.78;100922.90;215721;1253;60440;-73
2023/03/28 22:09:01;;;;;;;4.00;2.40;;;;;;;-1.30;59.63;100922.90;216424;1253;60455;-73
2023/03/28 22:14:33;;;;;;;4.20;2.90;;;;;;;-1.39;59.52;100918.39;215745;1254;72177;-75
2023/03/28 22:19:28;;;;;;;4.40;2.20;;;;;;;-1.48;59.18;100923.88;215702;1253;60477;-75
2023/03/28 22:24:23;;;;;;;3.30;2.00;;;;;;;-1.57;59.12;100920.92;215923;1253;65978;-73
2023/03/28 22:29:16;;;;;;;5.00;2.60;;;;;;;-1.63;59.07;100924.77;216021;1253;60418;-73
2023/03/28 22:34:09;;;;;;;3.90;2.10;;;;;;;-1.67;59.13;100928.19;216068;1253;72561;-73
2023/03/28 22:39:02;;;;;;;5.10;2.60;;;;;;;-1.73;59.21;100928.31;216208;1256;60542;-72
2023/03/28 22:43:55;;;;;;;2.90;2.00;;;;;;;-1.78;59.08;100929.29;215940;1253;60540;-73
2023/03/28 22:48:52;;;;;;;3.20;2.30;;;;;;;-1.85;58.93;100931.38;215928;1253;60578;-73
2023/03/28 22:53:46;;;;;;;3.50;2.00;;;;;;;-1.94;58.99;100930.09;215963;1253;60443;-73
2023/03/28 22:58:39;;;;;;;2.80;2.00;;;;;;;-2.00;59.02;100934.07;215818;1254;73660;-73
2023/03/28 23:03:32;;;;;;;2.50;1.80;;;;;;;-2.07;59.11;100931.04;215785;1258;60465;-72
2023/03/28 23:08:26;;;;;;;4.80;2.10;;;;;;;-2.11;59.19;100930.05;218037;1254;58635;-72
2023/03/28 23:13:18;;;;;;;2.70;1.70;;;;;;;-2.14;59.09;100934.98;215770;1254;67144;-74